sensor_id;sensor_type;location;lat;lon;timestamp;pressure;altitude;pressure_sealevel;temperature;humidity
17260;BME280;8746;49.230;9.220;2024-01-30T00:01:01;101293.81;;;-1.07;100.00
17260;BME280;8746;49.230;9.220;2024-01-30T00:03:26;101294.75;;;-1.05;100.00
17260;BME280;8746;49.230;9.220;2024-01-30T00:05:52;101293.88;;;-1.05;100.00
17260;BME280;8746;49.230;9.220;2024-01-30T00:08:17;101293.63;;;-1.15;100.00
17260;BME280;8746;49.230;9.220;2024-01-30T00:10:42;101285.84;;;-1.15;100.00
17260;BME280;8746;49.230;9.220;2024-01-30T00:13:08;101286.72;;;-1.14;100.00
17260;BME280;8746;49.230;9.220;2024-01-30T00:15:34;101290.19;;;-1.14;100.00
17260;BME280;8746;49.230;9.220;2024-01-30T00:17:59;101284.88;;;-1.18;100.00
17260;BME280;8746;49.230;9.220;2024-01-30T00:20:25;101290.91;;;-1.18;100.00
17260;BME280;8746;49.230;9.220;2024-01-30T00:22:50;101291.00;;;-1.16;100.00
17260;BME280;8746;49.230;9.220;2024-01-30T00:25:15;101295.22;;;-1.18;100.00
17260;BME280;8746;49.230;9.220;2024-01-30T00:27:41;101297.22;;;-1.09;100.00
17260;BME280;8746;49.230;9.220;2024-01-30T00:30:07;101287.00;;;-1.05;100.00
17260;BME280;8746;49.230;9.220;2024-01-30T00:32:32;101293.03;;;-1.04;100.00
17260;BME280;8746;49.230;9.220;2024-01-30T00:34:58;101291.19;;;-1.08;100.00
17260;BME280;8746;49.230;9.220;2024-01-30T00:37:23;101293.69;;;-1.11;100.00
17260;BME280;8746;49.230;9.220;2024-01-30T00:39:49;101287.72;;;-1.09;100.00
17260;BME280;8746;49.230;9.220;2024-01-30T00:42:14;101294.44;;;-1.16;100.00
17260;BME280;8746;49.230;9.220;2024-01-30T00:44:40;101293.56;;;-1.16;100.00
17260;BME280;8746;49.230;9.220;2024-01-30T00:47:05;101295.28;;;-1.17;100.00
17260;BME280;8746;49.230;9.220;2024-01-30T00:49:31;101303.03;;;-1.17;100.00
17260;BME280;8746;49.230;9.220;2024-01-30T00:51:56;101303.97;;;-1.15;100.00
17260;BME280;8746;49.230;9.220;2024-01-30T00:54:21;101297.88;;;-1.17;100.00
17260;BME280;8746;49.230;9.220;2024-01-30T00:56:47;101294.34;;;-1.19;100.00
17260;BME280;8746;49.230;9.220;2024-01-30T00:59:12;101292.31;;;-1.29;100.00
17260;BME280;8746;49.230;9.220;2024-01-30T01:01:37;101294.13;;;-1.26;100.00
17260;BME280;8746;49.230;9.220;2024-01-30T01:04:03;101298.47;;;-1.25;100.00
17260;BME280;8746;49.230;9.220;2024-01-30T01:06:28;101300.19;;;-1.26;100.00
17260;BME280;8746;49.230;9.220;2024-01-30T01:08:54;101297.88;;;-1.17;100.00
17260;BME280;8746;49.230;9.220;2024-01-30T01:11:19;101296.16;;;-1.16;100.00
17260;BME280;8746;49.230;9.220;2024-01-30T01:13:44;101298.78;;;-1.15;100.00
17260;BME280;8746;49.230;9.220;2024-01-30T01:16:10;101300.44;;;-1.17;100.00
17260;BME280;8746;49.230;9.220;2024-01-30T01:18:35;101305.59;;;-1.18;100.00
17260;BME280;8746;49.230;9.220;2024-01-30T01:21:00;101305.47;;;-1.21;100.00
17260;BME280;8746;49.230;9.220;2024-01-30T01:23:26;101303.63;;;-1.27;100.00
17260;BME280;8746;49.230;9.220;2024-01-30T01:25:51;101301.06;;;-1.25;100.00
17260;BME280;8746;49.230;9.220;2024-01-30T01:28:17;101304.34;;;-1.31;100.00
17260;BME280;8746;49.230;9.220;2024-01-30T01:30:42;101304.34;;;-1.31;100.00
17260;BME280;8746;49.230;9.220;2024-01-30T01:33:07;101306.03;;;-1.33;100.00
17260;BME280;8746;49.230;9.220;2024-01-30T01:35:34;101299.16;;;-1.31;100.00
17260;BME280;8746;49.230;9.220;2024-01-30T01:38:00;101306.84;;;-1.34;100.00
17260;BME280;8746;49.230;9.220;2024-01-30T01:40:27;101304.97;;;-1.38;100.00
17260;BME280;8746;49.230;9.220;2024-01-30T01:42:54;101308.50;;;-1.36;100.00
17260;BME280;8746;49.230;9.220;2024-01-30T01:45:20;101301.53;;;-1.39;100.00
17260;BME280;8746;49.230;9.220;2024-01-30T01:47:50;101304.06;;;-1.40;100.00
17260;BME280;8746;49.230;9.220;2024-01-30T01:50:16;101302.34;;;-1.40;100.00
17260;BME280;8746;49.230;9.220;2024-01-30T01:52:44;101299.72;;;-1.41;100.00
17260;BME280;8746;49.230;9.220;2024-01-30T01:55:12;101298.78;;;-1.43;100.00
17260;BME280;8746;49.230;9.220;2024-01-30T01:57:38;101309.09;;;-1.45;100.00
17260;BME280;8746;49.230;9.220;2024-01-30T02:00:04;101300.34;;;-1.49;100.00
17260;BME280;8746;49.230;9.220;2024-01-30T02:02:31;101293.53;;;-1.47;100.00
17260;BME280;8746;49.230;9.220;2024-01-30T02:05:00;101297.88;;;-1.46;100.00
17260;BME280;8746;49.230;9.220;2024-01-30T02:07:26;101297.03;;;-1.45;100.00
17260;BME280;8746;49.230;9.220;2024-01-30T02:09:52;101297.66;;;-1.52;100.00
17260;BME280;8746;49.230;9.220;2024-01-30T02:12:18;101303.78;;;-1.50;100.00
17260;BME280;8746;49.230;9.220;2024-01-30T02:14:47;101302.00;;;-1.51;100.00
17260;BME280;8746;49.230;9.220;2024-01-30T02:17:13;101293.41;;;-1.50;100.00
17260;BME280;8746;49.230;9.220;2024-01-30T02:19:40;101299.38;;;-1.52;100.00
17260;BME280;8746;49.230;9.220;2024-01-30T02:22:05;101301.03;;;-1.54;100.00
17260;BME280;8746;49.230;9.220;2024-01-30T02:24:31;101299.38;;;-1.52;100.00
17260;BME280;8746;49.230;9.220;2024-01-30T02:26:56;101301.03;;;-1.54;100.00
17260;BME280;8746;49.230;9.220;2024-01-30T02:29:22;101298.53;;;-1.53;100.00
17260;BME280;8746;49.230;9.220;2024-01-30T02:31:47;101305.34;;;-1.55;100.00
17260;BME280;8746;49.230;9.220;2024-01-30T02:34:13;101297.53;;;-1.56;100.00
17260;BME280;8746;49.230;9.220;2024-01-30T02:36:42;101299.22;;;-1.57;100.00
17260;BME280;8746;49.230;9.220;2024-01-30T02:39:07;101299.19;;;-1.58;100.00
17260;BME280;8746;49.230;9.220;2024-01-30T02:41:33;101301.63;;;-1.63;100.00
17260;BME280;8746;49.230;9.220;2024-01-30T02:43:58;101295.63;;;-1.62;100.00
17260;BME280;8746;49.230;9.220;2024-01-30T02:46:23;101298.13;;;-1.65;100.00
17260;BME280;8746;49.230;9.220;2024-01-30T02:48:49;101292.19;;;-1.63;100.00
17260;BME280;8746;49.230;9.220;2024-01-30T02:51:14;101303.41;;;-1.62;100.00
17260;BME280;8746;49.230;9.220;2024-01-30T02:53:39;101299.97;;;-1.61;100.00
17260;BME280;8746;49.230;9.220;2024-01-30T02:56:05;101300.81;;;-1.62;100.00
17260;BME280;8746;49.230;9.220;2024-01-30T02:58:31;101299.88;;;-1.64;100.00
17260;BME280;8746;49.230;9.220;2024-01-30T03:00:56;101301.44;;;-1.69;100.00
17260;BME280;8746;49.230;9.220;2024-01-30T03:03:21;101298.03;;;-1.68;100.00
17260;BME280;8746;49.230;9.220;2024-01-30T03:05:47;101304.03;;;-1.69;100.00
17260;BME280;8746;49.230;9.220;2024-01-30T03:08:13;101299.69;;;-1.70;100.00
17260;BME280;8746;49.230;9.220;2024-01-30T03:10:38;101294.63;;;-1.67;100.00
17260;BME280;8746;49.230;9.220;2024-01-30T03:13:03;101293.69;;;-1.69;100.00
17260;BME280;8746;49.230;9.220;2024-01-30T03:15:29;101303.06;;;-1.73;100.00
17260;BME280;8746;49.230;9.220;2024-01-30T03:17:54;101296.00;;;-1.79;100.00
17260;BME280;8746;49.230;9.220;2024-01-30T03:20:19;101294.13;;;-1.83;100.00
17260;BME280;8746;49.230;9.220;2024-01-30T03:22:44;101300.13;;;-1.84;100.00
17260;BME280;8746;49.230;9.220;2024-01-30T03:25:10;101296.53;;;-1.87;100.00
17260;BME280;8746;49.230;9.220;2024-01-30T03:27:35;101299.91;;;-1.90;100.00
17260;BME280;8746;49.230;9.220;2024-01-30T03:30:00;101304.38;;;-1.86;100.00
17260;BME280;8746;49.230;9.220;2024-01-30T03:32:26;101296.47;;;-1.90;100.00
17260;BME280;8746;49.230;9.220;2024-01-30T03:34:51;101297.34;;;-1.90;100.00
17260;BME280;8746;49.230;9.220;2024-01-30T03:37:17;101296.50;;;-1.89;100.00
17260;BME280;8746;49.230;9.220;2024-01-30T03:39:42;101297.41;;;-1.88;100.00
17260;BME280;8746;49.230;9.220;2024-01-30T03:42:07;101303.25;;;-1.94;100.00
17260;BME280;8746;49.230;9.220;2024-01-30T03:44:32;101297.34;;;-1.90;100.00
17260;BME280;8746;49.230;9.220;2024-01-30T03:46:58;101302.31;;;-1.96;100.00
17260;BME280;8746;49.230;9.220;2024-01-30T03:49:23;101301.41;;;-1.98;100.00
17260;BME280;8746;49.230;9.220;2024-01-30T03:51:49;101297.97;;;-1.97;100.00
17260;BME280;8746;49.230;9.220;2024-01-30T03:54:14;101307.59;;;-1.93;100.00
17260;BME280;8746;49.230;9.220;2024-01-30T03:56:40;101302.25;;;-1.98;100.00
17260;BME280;8746;49.230;9.220;2024-01-30T03:59:05;101297.03;;;-1.99;100.00
17260;BME280;8746;49.230;9.220;2024-01-30T04:01:30;101298.03;;;-1.96;100.00
17260;BME280;8746;49.230;9.220;2024-01-30T04:03:55;101300.53;;;-1.97;100.00
17260;BME280;8746;49.230;9.220;2024-01-30T04:06:21;101297.25;;;-1.93;100.00
17260;BME280;8746;49.230;9.220;2024-01-30T04:08:46;101302.41;;;-1.93;100.00
17260;BME280;8746;49.230;9.220;2024-01-30T04:11:12;101299.75;;;-1.95;100.00
17260;BME280;8746;49.230;9.220;2024-01-30T04:13:37;101295.28;;;-2.00;100.00
17260;BME280;8746;49.230;9.220;2024-01-30T04:16:03;101290.06;;;-2.02;100.00
17260;BME280;8746;49.230;9.220;2024-01-30T04:18:29;101296.22;;;-1.98;100.00
17260;BME280;8746;49.230;9.220;2024-01-30T04:20:54;101303.19;;;-1.96;100.00
17260;BME280;8746;49.230;9.220;2024-01-30T04:23:20;101298.91;;;-1.95;100.00
17260;BME280;8746;49.230;9.220;2024-01-30T04:25:45;101300.63;;;-1.96;100.00
17260;BME280;8746;49.230;9.220;2024-01-30T04:28:10;101305.81;;;-1.94;100.00
17260;BME280;8746;49.230;9.220;2024-01-30T04:30:39;101308.38;;;-1.96;100.00
17260;BME280;8746;49.230;9.220;2024-01-30T04:33:04;101299.63;;;-1.99;100.00
17260;BME280;8746;49.230;9.220;2024-01-30T04:35:30;101300.47;;;-2.00;100.00
17260;BME280;8746;49.230;9.220;2024-01-30T04:37:55;101297.91;;;-1.99;100.00
17260;BME280;8746;49.230;9.220;2024-01-30T04:40:21;101305.59;;;-2.02;100.00
17260;BME280;8746;49.230;9.220;2024-01-30T04:42:46;101305.50;;;-2.03;100.00
17260;BME280;8746;49.230;9.220;2024-01-30T04:45:12;101305.47;;;-2.05;100.00
17260;BME280;8746;49.230;9.220;2024-01-30T04:47:37;101296.72;;;-2.08;100.00
17260;BME280;8746;49.230;9.220;2024-01-30T04:50:05;101304.53;;;-2.07;100.00
17260;BME280;8746;49.230;9.220;2024-01-30T04:52:31;101297.66;;;-2.06;100.00
17260;BME280;8746;49.230;9.220;2024-01-30T04:54:56;101300.34;;;-2.03;100.00
17260;BME280;8746;49.230;9.220;2024-01-30T04:57:21;101301.13;;;-2.06;100.00
17260;BME280;8746;49.230;9.220;2024-01-30T04:59:47;101307.03;;;-2.10;100.00
17260;BME280;8746;49.230;9.220;2024-01-30T05:02:12;101301.91;;;-2.08;100.00
17260;BME280;8746;49.230;9.220;2024-01-30T05:04:37;101301.91;;;-2.08;100.00
17260;BME280;8746;49.230;9.220;2024-01-30T05:07:03;101302.03;;;-2.05;100.00
17260;BME280;8746;49.230;9.220;2024-01-30T05:09:28;101307.13;;;-2.07;100.00
17260;BME280;8746;49.230;9.220;2024-01-30T05:11:53;101306.03;;;-2.14;100.00
17260;BME280;8746;49.230;9.220;2024-01-30T05:14:19;101308.63;;;-2.14;100.00
17260;BME280;8746;49.230;9.220;2024-01-30T05:16:44;101310.41;;;-2.13;100.00
17260;BME280;8746;49.230;9.220;2024-01-30T05:19:15;101311.91;;;-2.18;100.00
17260;BME280;8746;49.230;9.220;2024-01-30T05:21:42;101313.69;;;-2.17;100.00
17260;BME280;8746;49.230;9.220;2024-01-30T05:24:07;101310.28;;;-2.16;100.00
17260;BME280;8746;49.230;9.220;2024-01-30T05:26:35;101317.09;;;-2.18;100.00
17260;BME280;8746;49.230;9.220;2024-01-30T05:29:00;101324.81;;;-2.19;100.00
17260;BME280;8746;49.230;9.220;2024-01-30T05:31:26;101321.34;;;-2.20;100.00
17260;BME280;8746;49.230;9.220;2024-01-30T05:33:52;101323.81;;;-2.23;100.00
17260;BME280;8746;49.230;9.220;2024-01-30T05:36:20;101318.78;;;-2.20;100.00
17260;BME280;8746;49.230;9.220;2024-01-30T05:38:46;101318.84;;;-2.17;100.00
17260;BME280;8746;49.230;9.220;2024-01-30T05:41:12;101317.16;;;-2.16;100.00
17260;BME280;8746;49.230;9.220;2024-01-30T05:43:37;101324.84;;;-2.18;100.00
17260;BME280;8746;49.230;9.220;2024-01-30T05:46:02;101327.44;;;-2.18;100.00
17260;BME280;8746;49.230;9.220;2024-01-30T05:48:28;101332.31;;;-2.27;100.00
17260;BME280;8746;49.230;9.220;2024-01-30T05:50:53;101327.91;;;-2.30;100.00
17260;BME280;8746;49.230;9.220;2024-01-30T05:53:19;101331.53;;;-2.24;100.00
17260;BME280;8746;49.230;9.220;2024-01-30T05:55:44;101334.00;;;-2.28;100.00
17260;BME280;8746;49.230;9.220;2024-01-30T05:58:09;101331.38;;;-2.29;100.00
17260;BME280;8746;49.230;9.220;2024-01-30T06:00:35;101335.66;;;-2.30;100.00
17260;BME280;8746;49.230;9.220;2024-01-30T06:03:00;101324.50;;;-2.29;100.00
17260;BME280;8746;49.230;9.220;2024-01-30T06:05:26;101330.66;;;-2.25;100.00
17260;BME280;8746;49.230;9.220;2024-01-30T06:07:51;101331.53;;;-2.24;100.00
17260;BME280;8746;49.230;9.220;2024-01-30T06:10:16;101328.94;;;-2.24;100.00
17260;BME280;8746;49.230;9.220;2024-01-30T06:12:42;101329.69;;;-2.29;100.00
17260;BME280;8746;49.230;9.220;2024-01-30T06:15:08;101327.03;;;-2.30;100.00
17260;BME280;8746;49.230;9.220;2024-01-30T06:17:33;101333.09;;;-2.30;100.00
17260;BME280;8746;49.230;9.220;2024-01-30T06:19:58;101333.88;;;-2.32;100.00
17260;BME280;8746;49.230;9.220;2024-01-30T06:22:24;101329.47;;;-2.35;100.00
17260;BME280;8746;49.230;9.220;2024-01-30T06:24:49;101330.34;;;-2.34;100.00
17260;BME280;8746;49.230;9.220;2024-01-30T06:27:15;101326.16;;;-2.31;100.00
17260;BME280;8746;49.230;9.220;2024-01-30T06:29:42;101334.69;;;-2.33;100.00
17260;BME280;8746;49.230;9.220;2024-01-30T06:32:08;101336.44;;;-2.32;100.00
17260;BME280;8746;49.230;9.220;2024-01-30T06:34:33;101333.03;;;-2.31;100.00
17260;BME280;8746;49.230;9.220;2024-01-30T06:36:59;101336.53;;;-2.29;100.00
17260;BME280;8746;49.230;9.220;2024-01-30T06:39:24;101338.25;;;-2.30;100.00
17260;BME280;8746;49.230;9.220;2024-01-30T06:41:50;101333.94;;;-2.29;100.00
17260;BME280;8746;49.230;9.220;2024-01-30T06:44:15;101338.13;;;-2.33;100.00
17260;BME280;8746;49.230;9.220;2024-01-30T06:46:41;101338.22;;;-2.31;100.00
17260;BME280;8746;49.230;9.220;2024-01-30T06:49:06;101336.50;;;-2.31;100.00
17260;BME280;8746;49.230;9.220;2024-01-30T06:51:32;101336.69;;;-2.24;100.00
17260;BME280;8746;49.230;9.220;2024-01-30T06:53:57;101341.00;;;-2.25;100.00
17260;BME280;8746;49.230;9.220;2024-01-30T06:56:22;101346.06;;;-2.28;100.00
17260;BME280;8746;49.230;9.220;2024-01-30T06:58:48;101337.22;;;-2.35;100.00
17260;BME280;8746;49.230;9.220;2024-01-30T07:01:14;101337.25;;;-2.33;100.00
17260;BME280;8746;49.230;9.220;2024-01-30T07:03:40;101340.88;;;-2.28;100.00
17260;BME280;8746;49.230;9.220;2024-01-30T07:06:05;101343.50;;;-2.27;100.00
17260;BME280;8746;49.230;9.220;2024-01-30T07:08:30;101335.72;;;-2.28;100.00
17260;BME280;8746;49.230;9.220;2024-01-30T07:10:56;101339.25;;;-2.26;100.00
17260;BME280;8746;49.230;9.220;2024-01-30T07:13:21;101336.66;;;-2.26;100.00
17260;BME280;8746;49.230;9.220;2024-01-30T07:15:47;101348.84;;;-2.22;100.00
17260;BME280;8746;49.230;9.220;2024-01-30T07:18:12;101351.41;;;-2.23;100.00
17260;BME280;8746;49.230;9.220;2024-01-30T07:20:39;101353.19;;;-2.21;100.00
17260;BME280;8746;49.230;9.220;2024-01-30T07:23:22;101349.78;;;-2.20;100.00
17260;BME280;8746;49.230;9.220;2024-01-30T07:25:47;101348.13;;;-2.18;100.00
17260;BME280;8746;49.230;9.220;2024-01-30T07:28:15;101347.38;;;-2.15;100.00
17260;BME280;8746;49.230;9.220;2024-01-30T07:30:42;101345.66;;;-2.15;100.00
17260;BME280;8746;49.230;9.220;2024-01-30T07:33:08;101347.47;;;-2.12;100.00
17260;BME280;8746;49.230;9.220;2024-01-30T07:35:34;101348.50;;;-2.07;100.00
17260;BME280;8746;49.230;9.220;2024-01-30T07:37:59;101350.41;;;-2.01;100.00
17260;BME280;8746;49.230;9.220;2024-01-30T07:40:24;101342.78;;;-1.98;100.00
17260;BME280;8746;49.230;9.220;2024-01-30T07:42:50;101344.78;;;-1.89;100.00
17260;BME280;8746;49.230;9.220;2024-01-30T07:45:15;101348.28;;;-1.87;100.00
17260;BME280;8746;49.230;9.220;2024-01-30T07:47:41;101347.63;;;-1.82;100.00
17260;BME280;8746;49.230;9.220;2024-01-30T07:50:07;101352.91;;;-1.79;100.00
17260;BME280;8746;49.230;9.220;2024-01-30T07:52:33;101349.63;;;-1.73;100.00
17260;BME280;8746;49.230;9.220;2024-01-30T07:54:58;101346.38;;;-1.67;100.00
17260;BME280;8746;49.230;9.220;2024-01-30T07:57:24;101349.97;;;-1.62;100.00
17260;BME280;8746;49.230;9.220;2024-01-30T07:59:49;101351.81;;;-1.58;100.00
17260;BME280;8746;49.230;9.220;2024-01-30T08:02:15;101354.56;;;-1.53;100.00
17260;BME280;8746;49.230;9.220;2024-01-30T08:04:40;101352.25;;;-1.46;100.00
17260;BME280;8746;49.230;9.220;2024-01-30T08:07:06;101347.31;;;-1.36;100.00
17260;BME280;8746;49.230;9.220;2024-01-30T08:09:31;101360.56;;;-1.27;100.00
17260;BME280;8746;49.230;9.220;2024-01-30T08:11:56;101356.31;;;-1.25;100.00
17260;BME280;8746;49.230;9.220;2024-01-30T08:14:22;101359.94;;;-1.20;100.00
17260;BME280;8746;49.230;9.220;2024-01-30T08:16:47;101352.38;;;-1.12;100.00
17260;BME280;8746;49.230;9.220;2024-01-30T08:19:14;101347.53;;;-1.01;100.00
17260;BME280;8746;49.230;9.220;2024-01-30T08:21:40;101353.66;;;-0.99;100.00
17260;BME280;8746;49.230;9.220;2024-01-30T08:24:06;101353.72;;;-0.96;100.00
17260;BME280;8746;49.230;9.220;2024-01-30T08:26:32;101350.78;;;-0.79;100.00
17260;BME280;8746;49.230;9.220;2024-01-30T08:28:57;101357.84;;;-0.72;100.00
17260;BME280;8746;49.230;9.220;2024-01-30T08:31:23;101358.94;;;-0.66;100.00
17260;BME280;8746;49.230;9.220;2024-01-30T08:33:48;101354.91;;;-0.54;100.00
17260;BME280;8746;49.230;9.220;2024-01-30T08:36:15;101356.81;;;-0.49;100.00
17260;BME280;8746;49.230;9.220;2024-01-30T08:38:40;101362.22;;;-0.39;100.00
17260;BME280;8746;49.230;9.220;2024-01-30T08:41:07;101370.41;;;-0.25;100.00
17260;BME280;8746;49.230;9.220;2024-01-30T08:43:32;101361.00;;;-0.22;100.00
17260;BME280;8746;49.230;9.220;2024-01-30T08:46:01;101356.97;;;-0.10;100.00
17260;BME280;8746;49.230;9.220;2024-01-30T08:48:26;101368.31;;;-0.05;100.00
17260;BME280;8746;49.230;9.220;2024-01-30T08:50:52;101368.59;;;0.04;100.00
17260;BME280;8746;49.230;9.220;2024-01-30T08:53:18;101371.38;;;0.12;100.00
17260;BME280;8746;49.230;9.220;2024-01-30T08:55:44;101369.19;;;0.29;100.00
17260;BME280;8746;49.230;9.220;2024-01-30T08:58:09;101363.25;;;0.33;100.00
17260;BME280;8746;49.230;9.220;2024-01-30T09:00:35;101370.03;;;0.28;100.00
17260;BME280;8746;49.230;9.220;2024-01-30T09:03:00;101380.84;;;0.45;100.00
17260;BME280;8746;49.230;9.220;2024-01-30T09:05:25;101374.00;;;0.48;100.00
17260;BME280;8746;49.230;9.220;2024-01-30T09:07:51;101373.16;;;0.50;100.00
17260;BME280;8746;49.230;9.220;2024-01-30T09:10:16;101374.53;;;0.35;100.00
17260;BME280;8746;49.230;9.220;2024-01-30T09:12:41;101377.56;;;0.52;100.00
17260;BME280;8746;49.230;9.220;2024-01-30T09:15:07;101373.31;;;0.56;100.00
17260;BME280;8746;49.230;9.220;2024-01-30T09:17:33;101375.34;;;0.69;100.00
17260;BME280;8746;49.230;9.220;2024-01-30T09:19:58;101379.16;;;0.84;100.00
17260;BME280;8746;49.230;9.220;2024-01-30T09:22:24;101375.84;;;0.91;100.00
17260;BME280;8746;49.230;9.220;2024-01-30T09:24:50;101387.19;;;0.94;100.00
17260;BME280;8746;49.230;9.220;2024-01-30T09:27:15;101383.09;;;1.04;100.00
17260;BME280;8746;49.230;9.220;2024-01-30T09:29:40;101381.50;;;1.12;100.00
17260;BME280;8746;49.230;9.220;2024-01-30T09:32:06;101381.69;;;1.20;100.00
17260;BME280;8746;49.230;9.220;2024-01-30T09:34:32;101379.31;;;1.31;100.00
17260;BME280;8746;49.230;9.220;2024-01-30T09:36:59;101371.66;;;1.37;100.00
17260;BME280;8746;49.230;9.220;2024-01-30T09:39:25;101375.69;;;1.24;100.00
17260;BME280;8746;49.230;9.220;2024-01-30T09:42:12;101375.78;;;1.27;100.00
17260;BME280;8746;49.230;9.220;2024-01-30T09:44:43;101377.09;;;1.50;100.00
17260;BME280;8746;49.230;9.220;2024-01-30T09:47:09;101379.25;;;1.72;100.00
17260;BME280;8746;49.230;9.220;2024-01-30T09:49:35;101383.00;;;1.87;100.00
17260;BME280;8746;49.230;9.220;2024-01-30T09:52:02;101378.28;;;1.66;100.00
17260;BME280;8746;49.230;9.220;2024-01-30T09:54:32;101382.06;;;1.83;100.00
17260;BME280;8746;49.230;9.220;2024-01-30T09:56:58;101386.81;;;2.04;100.00
17260;BME280;8746;49.230;9.220;2024-01-30T09:59:23;101378.41;;;2.21;100.00
17260;BME280;8746;49.230;9.220;2024-01-30T10:01:50;101375.13;;;2.31;100.00
17260;BME280;8746;49.230;9.220;2024-01-30T10:04:16;101385.69;;;2.40;100.00
17260;BME280;8746;49.230;9.220;2024-01-30T10:06:41;101383.19;;;2.48;100.00
17260;BME280;8746;49.230;9.220;2024-01-30T10:09:07;101380.75;;;2.59;100.00
17260;BME280;8746;49.230;9.220;2024-01-30T10:11:33;101383.63;;;2.78;100.00
17260;BME280;8746;49.230;9.220;2024-01-30T10:14:00;101376.06;;;2.93;100.00
17260;BME280;8746;49.230;9.220;2024-01-30T10:16:25;101371.50;;;2.78;100.00
17260;BME280;8746;49.230;9.220;2024-01-30T10:18:50;101374.19;;;2.83;100.00
17260;BME280;8746;49.230;9.220;2024-01-30T10:21:16;101364.78;;;2.93;100.00
17260;BME280;8746;49.230;9.220;2024-01-30T10:23:43;101371.81;;;3.00;100.00
17260;BME280;8746;49.230;9.220;2024-01-30T10:26:09;101372.31;;;2.74;100.00
17260;BME280;8746;49.230;9.220;2024-01-30T10:28:34;101364.50;;;2.74;100.00
17260;BME280;8746;49.230;9.220;2024-01-30T10:31:00;101367.06;;;2.72;100.00
17260;BME280;8746;49.230;9.220;2024-01-30T10:33:26;101370.66;;;2.79;100.00
17260;BME280;8746;49.230;9.220;2024-01-30T10:35:55;101354.44;;;2.99;100.00
17260;BME280;8746;49.230;9.220;2024-01-30T10:38:26;101358.19;;;3.19;100.00
17260;BME280;8746;49.230;9.220;2024-01-30T10:40:56;101360.81;;;3.24;100.00
17260;BME280;8746;49.230;9.220;2024-01-30T10:43:22;101355.84;;;3.43;100.00
17260;BME280;8746;49.230;9.220;2024-01-30T10:45:49;101352.47;;;3.50;100.00
17260;BME280;8746;49.230;9.220;2024-01-30T10:48:18;101352.66;;;3.68;100.00
17260;BME280;8746;49.230;9.220;2024-01-30T10:50:49;101350.09;;;3.73;100.00
17260;BME280;8746;49.230;9.220;2024-01-30T10:53:17;101349.31;;;3.82;100.00
17260;BME280;8746;49.230;9.220;2024-01-30T10:55:43;101354.56;;;3.83;100.00
17260;BME280;8746;49.230;9.220;2024-01-30T10:58:09;101346.88;;;3.99;100.00
17260;BME280;8746;49.230;9.220;2024-01-30T11:00:36;101352.91;;;3.93;100.00
17260;BME280;8746;49.230;9.220;2024-01-30T11:03:03;101350.28;;;3.93;100.00
17260;BME280;8746;49.230;9.220;2024-01-30T11:05:29;101352.22;;;4.13;100.00
17260;BME280;8746;49.230;9.220;2024-01-30T11:07:54;101346.84;;;3.97;100.00
17260;BME280;8746;49.230;9.220;2024-01-30T11:10:19;101350.47;;;4.10;100.00
17260;BME280;8746;49.230;9.220;2024-01-30T11:12:46;101351.38;;;4.17;100.00
17260;BME280;8746;49.230;9.220;2024-01-30T11:15:15;101353.97;;;4.17;100.00
17260;BME280;8746;49.230;9.220;2024-01-30T11:17:51;101355.69;;;4.09;100.00
17260;BME280;8746;49.230;9.220;2024-01-30T11:22:48;101354.78;;;4.07;100.00
17260;BME280;8746;49.230;9.220;2024-01-30T11:25:14;101343.41;;;4.01;100.00
17260;BME280;8746;49.230;9.220;2024-01-30T11:27:41;101349.66;;;4.16;100.00
17260;BME280;8746;49.230;9.220;2024-01-30T11:30:07;101344.31;;;4.07;100.00
17260;BME280;8746;49.230;9.220;2024-01-30T11:32:33;101345.88;;;3.88;100.00
17260;BME280;8746;49.230;9.220;2024-01-30T11:34:58;101341.59;;;3.94;100.00
17260;BME280;8746;49.230;9.220;2024-01-30T11:37:25;101342.53;;;3.99;100.00
17260;BME280;8746;49.230;9.220;2024-01-30T11:39:51;101337.41;;;4.12;100.00
17260;BME280;8746;49.230;9.220;2024-01-30T11:42:17;101333.94;;;4.13;100.00
17260;BME280;8746;49.230;9.220;2024-01-30T11:44:49;101330.63;;;4.32;100.00
17260;BME280;8746;49.230;9.220;2024-01-30T11:47:15;101329.97;;;4.64;100.00
17260;BME280;8746;49.230;9.220;2024-01-30T11:49:41;101326.38;;;4.50;100.00
17260;BME280;8746;49.230;9.220;2024-01-30T11:52:07;101316.84;;;4.55;100.00
17260;BME280;8746;49.230;9.220;2024-01-30T11:54:32;101321.28;;;4.69;100.00
17260;BME280;8746;49.230;9.220;2024-01-30T11:56:57;101317.91;;;4.91;100.00
17260;BME280;8746;49.230;9.220;2024-01-30T11:59:24;101310.97;;;4.96;100.00
17260;BME280;8746;49.230;9.220;2024-01-30T12:01:52;101303.94;;;4.81;100.00
17260;BME280;8746;49.230;9.220;2024-01-30T12:04:17;101304.00;;;4.91;100.00
17260;BME280;8746;49.230;9.220;2024-01-30T12:06:43;101311.84;;;4.97;100.00
17260;BME280;8746;49.230;9.220;2024-01-30T12:09:09;101299.72;;;5.11;100.00
17260;BME280;8746;49.230;9.220;2024-01-30T12:11:45;101294.47;;;5.16;100.00
17260;BME280;8746;49.230;9.220;2024-01-30T12:14:12;101294.53;;;5.25;100.00
17260;BME280;8746;49.230;9.220;2024-01-30T12:16:38;101291.00;;;5.16;100.00
17260;BME280;8746;49.230;9.220;2024-01-30T12:19:03;101290.97;;;5.11;100.00
17260;BME280;8746;49.230;9.220;2024-01-30T12:21:29;101287.47;;;5.06;100.00
17260;BME280;8746;49.230;9.220;2024-01-30T12:23:55;101280.53;;;5.09;100.00
17260;BME280;8746;49.230;9.220;2024-01-30T12:26:21;101276.09;;;4.97;100.00
17260;BME280;8746;49.230;9.220;2024-01-30T12:28:49;101280.50;;;5.02;98.85
17260;BME280;8746;49.230;9.220;2024-01-30T12:31:15;101277.03;;;5.04;99.31
17260;BME280;8746;49.230;9.220;2024-01-30T12:33:41;101284.91;;;5.15;100.00
17260;BME280;8746;49.230;9.220;2024-01-30T12:36:06;101279.69;;;5.26;100.00
17260;BME280;8746;49.230;9.220;2024-01-30T12:38:32;101271.88;;;5.34;99.71
17260;BME280;8746;49.230;9.220;2024-01-30T12:40:57;101279.75;;;5.38;99.75
17260;BME280;8746;49.230;9.220;2024-01-30T12:43:26;101278.91;;;5.47;98.01
17260;BME280;8746;49.230;9.220;2024-01-30T12:45:54;101276.28;;;5.47;99.42
17260;BME280;8746;49.230;9.220;2024-01-30T12:48:19;101281.53;;;5.47;100.00